^^
Station Historical Data
Daily Summary for November 3, 2017 Units:  English    Metric   Both
« Previous Day
Next Day »
Daily Weekly Monthly Yearly Custom
  High: Low: Average:
Temperature: 72.3 °F 49.7 °F 62.8 °F
Dew Point: 61.5 °F 38.0 °F 56.3 °F
Humidity: 95% 63% 80%
Wind Speed: 7.0mph 0.0mph 2.3mph
Wind Gust: 16.0mph - -
Wind- - South
Pressure: 30.21 in 29.97 in -
Precipitation: 0.00 in    
Historical Graphs
 
 
Tabular Data for November 3, 2017
Time Temperature Dew Point Pressure Wind Wind Speed Wind Gust Humidity Rainfall Rate (Hourly) Conditions
00:10 60.7 °F 58.9 °F 30.18 in Calm   1.0 mph 94% 0.00 in CLR
00:19 60.7 °F 59.0 °F 30.17 in SE 1.0 mph 2.0 mph 94% 0.00 in CLR
00:29 60.9 °F 59.2 °F 30.17 in Calm   4.0 mph 94% 0.00 in CLR
00:39 60.9 °F 58.9 °F 30.17 in South 1.0 mph 4.0 mph 93% 0.00 in CLR
00:49 61.0 °F 59.0 °F 30.17 in Calm   3.0 mph 93% 0.00 in CLR
00:59 61.0 °F 59.0 °F 30.17 in Calm   2.0 mph 93% 0.00 in CLR
01:09 60.8 °F 58.8 °F 30.17 in Calm   2.0 mph 93% 0.00 in BKN
01:19 60.9 °F 58.8 °F 30.16 in Calm   4.0 mph 93% 0.00 in BKN
01:29 60.5 °F 58.5 °F 30.16 in Calm   1.0 mph 93% 0.00 in BKN
01:39 60.7 °F 58.7 °F 30.15 in Calm   3.0 mph 93% 0.00 in BKN
01:50 60.9 °F 58.6 °F 30.15 in SSE 1.0 mph 4.0 mph 92% 0.00 in BKN
01:59 60.8 °F 58.5 °F 30.15 in South 1.0 mph 3.0 mph 92% 0.00 in BKN
02:09 60.7 °F 58.4 °F 30.15 in SSE 1.0 mph 3.0 mph 92% 0.00 in FEW
02:19 60.6 °F 58.2 °F 30.15 in Calm   2.0 mph 92% 0.00 in FEW
02:29 60.4 °F 58.1 °F 30.14 in Calm   2.0 mph 92% 0.00 in FEW
02:39 60.0 °F 57.7 °F 30.14 in South 1.0 mph 4.0 mph 92% 0.00 in FEW
02:50 59.9 °F 57.9 °F 30.14 in Calm   4.0 mph 93% 0.00 in FEW
02:59 59.8 °F 57.8 °F 30.14 in Calm   3.0 mph 93% 0.00 in FEW
03:09 59.7 °F 58.0 °F 30.13 in Calm   2.0 mph 94% 0.00 in CLR
03:20 59.4 °F 57.7 °F 30.13 in Calm     94% 0.00 in CLR
03:29 59.1 °F 57.4 °F 30.13 in Calm   1.0 mph 94% 0.00 in CLR
03:39 59.5 °F 58.1 °F 30.12 in South 2.0 mph 5.0 mph 95% 0.00 in CLR
03:49 59.9 °F 58.5 °F 30.11 in South 2.0 mph 5.0 mph 95% 0.00 in CLR
03:59 60.1 °F 58.4 °F 30.10 in SSE 1.0 mph 5.0 mph 94% 0.00 in CLR
04:09 60.4 °F 58.7 °F 30.10 in South 3.0 mph 7.0 mph 94% 0.00 in CLR
04:19 60.7 °F 58.7 °F 30.10 in South 1.0 mph 8.0 mph 93% 0.00 in CLR
04:30 60.5 °F 58.5 °F 30.10 in SSW 2.0 mph 6.0 mph 93% 0.00 in CLR
04:39 60.5 °F 58.5 °F 30.10 in SSW 1.0 mph 6.0 mph 93% 0.00 in CLR
04:50 60.7 °F 58.7 °F 30.10 in SSW 1.0 mph 7.0 mph 93% 0.00 in CLR
04:59 60.7 °F 58.7 °F 30.10 in SSW 2.0 mph 7.0 mph 93% 0.00 in CLR
05:09 60.7 °F 58.7 °F 30.10 in SSW 2.0 mph 5.0 mph 93% 0.00 in CLR
05:19 60.6 °F 58.6 °F 30.10 in South 1.0 mph 5.0 mph 93% 0.00 in CLR
05:29 60.6 °F 58.6 °F 30.09 in South 1.0 mph 7.0 mph 93% 0.00 in CLR
05:39 60.4 °F 58.4 °F 30.09 in South 2.0 mph 4.0 mph 93% 0.00 in CLR
05:49 60.3 °F 58.3 °F 30.09 in South 2.0 mph 7.0 mph 93% 0.00 in CLR
05:59 60.4 °F 58.4 °F 30.09 in South 2.0 mph 6.0 mph 93% 0.00 in CLR
06:09 60.4 °F 58.4 °F 30.09 in South 1.0 mph 6.0 mph 93% 0.00 in CLR
06:19 60.4 °F 58.4 °F 30.09 in South 2.0 mph 6.0 mph 93% 0.00 in CLR
06:29 60.5 °F 58.5 °F 30.09 in SSW 3.0 mph 8.0 mph 93% 0.00 in CLR
06:39 60.5 °F 58.5 °F 30.09 in South 3.0 mph 10.0 mph 93% 0.00 in CLR
06:49 60.5 °F 58.5 °F 30.08 in South 3.0 mph 10.0 mph 93% 0.00 in CLR
06:59 60.5 °F 58.5 °F 30.08 in SSW 1.0 mph 7.0 mph 93% 0.00 in CLR
07:09 60.3 °F 58.3 °F 30.08 in South 2.0 mph 8.0 mph 93% 0.00 in CLR
07:19 60.1 °F 58.1 °F 30.08 in South 3.0 mph 7.0 mph 93% 0.00 in CLR
07:29 60.1 °F 58.1 °F 30.08 in South 3.0 mph 7.0 mph 93% 0.00 in CLR
07:39 60.1 °F 58.4 °F 30.07 in SSW 3.0 mph 9.0 mph 94% 0.00 in CLR
07:49 60.3 °F 58.3 °F 30.07 in South 2.0 mph 8.0 mph 93% 0.00 in CLR
07:59 60.3 °F 58.3 °F 30.07 in SSE 3.0 mph 7.0 mph 93% 0.00 in CLR
08:09 60.5 °F 58.5 °F 30.07 in South 3.0 mph 15.0 mph 93% 0.00 in BKN
08:19 60.5 °F 58.5 °F 30.07 in SSW 1.0 mph 7.0 mph 93% 0.00 in BKN
08:29 60.6 °F 58.6 °F 30.07 in SSW 3.0 mph 8.0 mph 93% 0.00 in BKN
08:39 60.8 °F 58.8 °F 30.07 in South 2.0 mph 7.0 mph 93% 0.00 in BKN
08:49 61.1 °F 58.8 °F 30.07 in SSW 1.0 mph 8.0 mph 92% 0.00 in BKN
08:59 61.3 °F 59.0 °F 30.07 in SW 2.0 mph 9.0 mph 92% 0.00 in BKN
09:09 61.7 °F 59.0 °F 30.06 in SSW 3.0 mph 9.0 mph 91% 0.00 in SCT
09:19 62.1 °F 59.1 °F 30.06 in SSW 2.0 mph 12.0 mph 90% 0.00 in SCT
09:29 62.4 °F 59.4 °F 30.06 in SSW 5.0 mph 12.0 mph 90% 0.00 in SCT
09:39 62.8 °F 59.5 °F 30.05 in SSW 3.0 mph 7.0 mph 89% 0.00 in SCT
09:49 63.3 °F 59.6 °F 30.05 in South 1.0 mph 9.0 mph 88% 0.00 in SCT
09:59 63.8 °F 59.9 °F 30.05 in SSW 5.0 mph 7.0 mph 87% 0.00 in SCT
10:09 64.3 °F 60.3 °F 30.05 in SSW 2.0 mph 9.0 mph 87% 0.00 in FEW
10:19 64.7 °F 60.1 °F 30.05 in South 2.0 mph 9.0 mph 85% 0.00 in FEW
10:29 65.2 °F 60.2 °F 30.05 in South 3.0 mph 8.0 mph 84% 0.00 in FEW
10:39 65.6 °F 60.3 °F 30.04 in Calm   10.0 mph 83% 0.00 in FEW
10:49 66.1 °F 60.4 °F 30.05 in SSW 5.0 mph 10.0 mph 82% 0.00 in FEW
10:59 66.6 °F 60.6 °F 30.04 in SSW 1.0 mph 8.0 mph 81% 0.00 in FEW
11:09 67.5 °F 60.7 °F 30.04 in SW 2.0 mph 9.0 mph 79% 0.00 in FEW
11:19 67.9 °F 60.4 °F 30.04 in SW 3.0 mph 9.0 mph 77% 0.00 in FEW
11:29 68.3 °F 61.2 °F 30.04 in Calm   12.0 mph 78% 0.00 in FEW
11:39 68.5 °F 61.0 °F 30.03 in SW 3.0 mph 9.0 mph 77% 0.00 in FEW
11:49 68.3 °F 60.4 °F 30.03 in SW 6.0 mph 10.0 mph 76% 0.00 in FEW
11:59 68.4 °F 60.6 °F 30.02 in SW 3.0 mph 8.0 mph 76% 0.00 in FEW
12:09 68.9 °F 60.7 °F 30.01 in SW 5.0 mph 10.0 mph 75% 0.00 in FEW
12:20 70.1 °F 60.7 °F 30.01 in SSW 5.0 mph 9.0 mph 72% 0.00 in FEW
12:30 70.2 °F 60.4 °F 30.00 in SSW 6.0 mph 12.0 mph 71% 0.00 in FEW
12:39 70.5 °F 60.6 °F 30.00 in South 6.0 mph 12.0 mph 71% 0.00 in FEW
12:49 70.9 °F 61.0 °F 29.98 in SSW 3.0 mph 12.0 mph 71% 0.00 in FEW
12:59 71.2 °F 60.9 °F 29.99 in SSW 2.0 mph 10.0 mph 70% 0.00 in FEW
13:09 71.6 °F 60.9 °F 29.98 in SW 6.0 mph 10.0 mph 69% 0.00 in FEW
13:19 71.6 °F 60.9 °F 29.98 in SW 6.0 mph 10.0 mph 69% 0.00 in FEW
13:29 71.7 °F 60.6 °F 29.98 in SW 2.0 mph 10.0 mph 68% 0.00 in FEW
13:39 72.3 °F 61.2 °F 29.98 in SW 2.0 mph 9.0 mph 68% 0.00 in FEW
13:49 71.9 °F 60.4 °F 29.97 in SSW 5.0 mph 12.0 mph 67% 0.00 in FEW
13:59 71.8 °F 60.7 °F 29.97 in SW 3.0 mph 7.0 mph 68% 0.00 in FEW
14:09 72.0 °F 60.9 °F 29.97 in SSW 3.0 mph 8.0 mph 68% 0.00 in FEW
14:19 71.9 °F 60.3 °F 29.97 in SSW 3.0 mph 9.0 mph 67% 0.00 in FEW
14:29 72.3 °F 60.7 °F 29.97 in SSW 3.0 mph 10.0 mph 67% 0.00 in FEW
14:39 72.1 °F 60.9 °F 29.97 in SW 2.0 mph 9.0 mph 68% 0.00 in FEW
14:49 72.1 °F 61.0 °F 29.97 in SSW 1.0 mph 7.0 mph 68% 0.00 in FEW
14:59 72.0 °F 60.9 °F 29.97 in SW 3.0 mph 7.0 mph 68% 0.00 in FEW
15:09 71.7 °F 60.6 °F 29.97 in SW 2.0 mph 5.0 mph 68% 0.00 in SCT
15:19 71.7 °F 61.0 °F 29.97 in Calm   6.0 mph 69% 0.00 in SCT
15:29 71.7 °F 61.0 °F 29.98 in Calm   3.0 mph 69% 0.00 in SCT
15:39 71.8 °F 61.5 °F 29.98 in Calm   1.0 mph 70% 0.00 in SCT
15:49 71.9 °F 60.8 °F 29.98 in Calm   1.0 mph 68% 0.00 in SCT
15:59 72.1 °F 61.4 °F 29.97 in Calm   3.0 mph 69% 0.00 in SCT
16:09 72.0 °F 60.9 °F 29.98 in NNW 2.0 mph 3.0 mph 68% 0.00 in SCT
16:19 71.8 °F 60.7 °F 29.98 in Calm   3.0 mph 68% 0.00 in SCT
16:30 71.5 °F 60.8 °F 29.98 in Calm   3.0 mph 69% 0.00 in SCT
16:39 71.1 °F 60.4 °F 29.99 in NNE 1.0 mph 4.0 mph 69% 0.00 in SCT
16:49 70.5 °F 60.6 °F 29.99 in North 2.0 mph 8.0 mph 71% 0.00 in SCT
16:59 69.7 °F 60.3 °F 30.00 in NE 1.0 mph 12.0 mph 72% 0.00 in SCT
17:09 69.2 °F 59.8 °F 30.00 in NNE 2.0 mph 8.0 mph 72% 0.00 in BKN
17:19 69.0 °F 59.6 °F 30.01 in NE 1.0 mph 9.0 mph 72% 0.00 in BKN
17:29 68.7 °F 59.3 °F 30.01 in NW 2.0 mph 4.0 mph 72% 0.00 in BKN
17:39 68.3 °F 59.0 °F 30.02 in North 1.0 mph 7.0 mph 72% 0.00 in BKN
17:49 68.0 °F 59.0 °F 30.03 in WSW 3.0 mph 9.0 mph 73% 0.00 in BKN
17:59 67.6 °F 58.7 °F 30.03 in NNW 2.0 mph 5.0 mph 73% 0.00 in BKN
18:09 67.3 °F 58.3 °F 30.04 in North 1.0 mph 6.0 mph 73% 0.00 in BKN
18:19 66.7 °F 57.8 °F 30.05 in NE 5.0 mph 13.0 mph 73% 0.00 in BKN
18:29 66.1 °F 57.6 °F 30.06 in NNE 2.0 mph 12.0 mph 74% 0.00 in BKN
18:40 65.4 °F 57.3 °F 30.06 in NNE 3.0 mph 7.0 mph 75% 0.00 in BKN
18:49 64.6 °F 56.1 °F 30.07 in NE 5.0 mph 10.0 mph 74% 0.00 in BKN
18:59 63.4 °F 54.2 °F 30.08 in ESE 2.0 mph 13.0 mph 72% 0.00 in BKN
19:09 62.2 °F 53.4 °F 30.09 in NE 3.0 mph 9.0 mph 73% 0.00 in SCT
19:19 61.4 °F 52.7 °F 30.09 in NNE 7.0 mph 10.0 mph 73% 0.00 in SCT
19:29 60.7 °F 52.3 °F 30.10 in NNE 3.0 mph 14.0 mph 74% 0.00 in SCT
19:39 60.0 °F 51.7 °F 30.11 in NNE 3.0 mph 12.0 mph 74% 0.00 in SCT
19:49 59.0 °F 48.5 °F 30.12 in NW 5.0 mph 14.0 mph 68% 0.00 in SCT
19:59 58.0 °F 47.9 °F 30.12 in NNE 3.0 mph 7.0 mph 69% 0.00 in SCT
20:09 57.1 °F 46.6 °F 30.13 in NNE 5.0 mph 12.0 mph 68% 0.00 in FEW
20:19 56.5 °F 46.4 °F 30.14 in NW 2.0 mph 9.0 mph 69% 0.00 in FEW
20:29 56.2 °F 46.2 °F 30.15 in North 5.0 mph 12.0 mph 69% 0.00 in FEW
20:39 55.9 °F 45.9 °F 30.16 in NNW 3.0 mph 10.0 mph 69% 0.00 in FEW
20:49 55.7 °F 46.1 °F 30.15 in NNW 2.0 mph 10.0 mph 70% 0.00 in FEW
20:59 55.3 °F 45.7 °F 30.15 in North 3.0 mph 12.0 mph 70% 0.00 in FEW
21:09 55.1 °F 45.5 °F 30.16 in NNW 3.0 mph 12.0 mph 70% 0.00 in FEW
21:19 54.8 °F 45.2 °F 30.17 in North 1.0 mph 12.0 mph 70% 0.00 in FEW
21:29 54.3 °F 44.4 °F 30.17 in NNE 3.0 mph 15.0 mph 69% 0.00 in FEW
21:39 53.9 °F 44.4 °F 30.17 in NNW 3.0 mph 9.0 mph 70% 0.00 in FEW
21:49 53.7 °F 44.5 °F 30.17 in North 3.0 mph 12.0 mph 71% 0.00 in FEW
21:59 53.4 °F 44.3 °F 30.17 in NE 1.0 mph 8.0 mph 71% 0.00 in FEW
22:09 53.1 °F 43.9 °F 30.19 in NNE 2.0 mph 8.0 mph 71% 0.00 in CLR
22:19 52.6 °F 42.3 °F 30.19 in NW 6.0 mph 12.0 mph 68% 0.00 in CLR
22:29 52.4 °F 41.0 °F 30.19 in NNW 5.0 mph 10.0 mph 65% 0.00 in CLR
22:39 52.0 °F 40.6 °F 30.19 in NNW 5.0 mph 12.0 mph 65% 0.00 in CLR
22:49 51.7 °F 39.5 °F 30.19 in NW 6.0 mph 13.0 mph 63% 0.00 in CLR
22:59 51.4 °F 39.2 °F 30.20 in NNW 6.0 mph 16.0 mph 63% 0.00 in CLR
23:09 51.2 °F 39.0 °F 30.20 in North 3.0 mph 12.0 mph 63% 0.00 in CLR
23:29 50.6 °F 38.5 °F 30.21 in North 5.0 mph 12.0 mph 63% 0.00 in CLR
23:39 50.4 °F 38.2 °F 30.21 in NW 2.0 mph 12.0 mph 63% 0.00 in CLR
23:49 50.0 °F 38.3 °F 30.21 in North 5.0 mph 9.0 mph 64% 0.00 in CLR
23:59 49.7 °F 38.0 °F 30.21 in North 2.0 mph 10.0 mph 64% 0.00 in CLR
TarryTown NY Weather
Compliments of Weather Underground - 1.75 mb